sensor_id;sensor_type;location;lat;lon;timestamp;pressure;altitude;pressure_sealevel;temperature;humidity
38716;BME280;24833;49.324;8.694;2024-03-22T00:02:07;100474.41;;;10.97;60.23
38716;BME280;24833;49.324;8.694;2024-03-22T00:04:36;100480.75;;;10.96;60.34
38716;BME280;24833;49.324;8.694;2024-03-22T00:07:03;100481.13;;;10.93;60.30
38716;BME280;24833;49.324;8.694;2024-03-22T00:09:29;100476.97;;;10.90;60.46
38716;BME280;24833;49.324;8.694;2024-03-22T00:11:55;100484.31;;;10.88;60.20
38716;BME280;24833;49.324;8.694;2024-03-22T00:14:22;100490.88;;;10.86;60.55
38716;BME280;24833;49.324;8.694;2024-03-22T00:16:48;100491.88;;;10.85;60.44
38716;BME280;24833;49.324;8.694;2024-03-22T00:19:14;100484.22;;;10.82;60.38
38716;BME280;24833;49.324;8.694;2024-03-22T00:21:40;100478.22;;;10.80;60.35
38716;BME280;24833;49.324;8.694;2024-03-22T00:24:06;100476.91;;;10.76;60.57
38716;BME280;24833;49.324;8.694;2024-03-22T00:26:33;100470.09;;;10.73;60.46
38716;BME280;24833;49.324;8.694;2024-03-22T00:28:59;100465.13;;;10.70;60.50
38716;BME280;24833;49.324;8.694;2024-03-22T00:31:25;100466.28;;;10.68;60.42
38716;BME280;24833;49.324;8.694;2024-03-22T00:33:52;100472.84;;;10.65;60.67
38716;BME280;24833;49.324;8.694;2024-03-22T00:36:20;100463.31;;;10.62;60.84
38716;BME280;24833;49.324;8.694;2024-03-22T00:38:50;100460.00;;;10.60;60.82
38716;BME280;24833;49.324;8.694;2024-03-22T00:41:17;100461.03;;;10.59;60.76
38716;BME280;24833;49.324;8.694;2024-03-22T00:43:43;100452.38;;;10.57;60.60
38716;BME280;24833;49.324;8.694;2024-03-22T00:46:09;100451.69;;;10.55;60.91
38716;BME280;24833;49.324;8.694;2024-03-22T00:48:36;100451.69;;;10.55;60.98
38716;BME280;24833;49.324;8.694;2024-03-22T00:51:03;100439.34;;;10.54;61.06
38716;BME280;24833;49.324;8.694;2024-03-22T00:53:30;100438.53;;;10.54;61.15
38716;BME280;24833;49.324;8.694;2024-03-22T00:55:57;100430.69;;;10.52;61.46
38716;BME280;24833;49.324;8.694;2024-03-22T00:58:29;100422.50;;;10.54;61.25
38716;BME280;24833;49.324;8.694;2024-03-22T01:00:56;100425.34;;;10.52;61.22
38716;BME280;24833;49.324;8.694;2024-03-22T01:03:22;100420.03;;;10.52;61.02
38716;BME280;24833;49.324;8.694;2024-03-22T01:05:49;100414.69;;;10.52;61.40
38716;BME280;24833;49.324;8.694;2024-03-22T01:08:15;100407.69;;;10.51;61.37
38716;BME280;24833;49.324;8.694;2024-03-22T01:10:42;100404.00;;;10.52;61.69
38716;BME280;24833;49.324;8.694;2024-03-22T01:13:09;100404.00;;;10.52;61.66
38716;BME280;24833;49.324;8.694;2024-03-22T01:15:38;100398.66;;;10.52;61.71
38716;BME280;24833;49.324;8.694;2024-03-22T01:18:04;100404.81;;;10.53;61.70
38716;BME280;24833;49.324;8.694;2024-03-22T01:20:36;100399.47;;;10.53;61.54
38716;BME280;24833;49.324;8.694;2024-03-22T01:23:03;100395.97;;;10.52;61.69
38716;BME280;24833;49.324;8.694;2024-03-22T01:25:30;100406.66;;;10.52;61.74
38716;BME280;24833;49.324;8.694;2024-03-22T01:27:56;100398.66;;;10.52;61.82
38716;BME280;24833;49.324;8.694;2024-03-22T01:30:23;100397.81;;;10.52;61.61
38716;BME280;24833;49.324;8.694;2024-03-22T01:32:50;100404.00;;;10.52;62.00
38716;BME280;24833;49.324;8.694;2024-03-22T01:35:16;100390.66;;;10.52;62.13
38716;BME280;24833;49.324;8.694;2024-03-22T01:37:44;100391.66;;;10.51;62.09
38716;BME280;24833;49.324;8.694;2024-03-22T01:40:12;100390.00;;;10.50;61.93
38716;BME280;24833;49.324;8.694;2024-03-22T01:42:41;100394.66;;;10.48;62.14
38716;BME280;24833;49.324;8.694;2024-03-22T01:45:08;100393.00;;;10.47;62.01
38716;BME280;24833;49.324;8.694;2024-03-22T01:47:34;100383.34;;;10.46;61.90
38716;BME280;24833;49.324;8.694;2024-03-22T01:50:01;100387.03;;;10.45;62.08
38716;BME280;24833;49.324;8.694;2024-03-22T01:52:27;100379.22;;;10.44;61.96
38716;BME280;24833;49.324;8.694;2024-03-22T01:54:53;100382.88;;;10.43;62.11
38716;BME280;24833;49.324;8.694;2024-03-22T01:57:20;100372.38;;;10.41;62.01
38716;BME280;24833;49.324;8.694;2024-03-22T01:59:46;100368.03;;;10.40;62.02
38716;BME280;24833;49.324;8.694;2024-03-22T02:02:15;100371.72;;;10.39;62.18
38716;BME280;24833;49.324;8.694;2024-03-22T02:04:41;100369.06;;;10.39;62.16
38716;BME280;24833;49.324;8.694;2024-03-22T02:07:07;100366.38;;;10.39;62.41
38716;BME280;24833;49.324;8.694;2024-03-22T02:09:34;100365.56;;;10.39;62.27
38716;BME280;24833;49.324;8.694;2024-03-22T02:12:01;100366.38;;;10.39;62.31
38716;BME280;24833;49.324;8.694;2024-03-22T02:14:27;100361.88;;;10.40;62.77
38716;BME280;24833;49.324;8.694;2024-03-22T02:16:53;100361.06;;;10.39;62.45
38716;BME280;24833;49.324;8.694;2024-03-22T02:19:20;100355.72;;;10.39;62.45
38716;BME280;24833;49.324;8.694;2024-03-22T02:21:46;100350.38;;;10.39;62.65
38716;BME280;24833;49.324;8.694;2024-03-22T02:24:12;100353.22;;;10.38;62.42
38716;BME280;24833;49.324;8.694;2024-03-22T02:26:39;100343.38;;;10.38;62.83
38716;BME280;24833;49.324;8.694;2024-03-22T02:29:05;100351.56;;;10.36;62.60
38716;BME280;24833;49.324;8.694;2024-03-22T02:31:35;100341.06;;;10.35;62.72
38716;BME280;24833;49.324;8.694;2024-03-22T02:34:01;100336.72;;;10.34;62.83
38716;BME280;24833;49.324;8.694;2024-03-22T02:36:27;100342.06;;;10.34;62.84
38716;BME280;24833;49.324;8.694;2024-03-22T02:38:54;100343.09;;;10.33;62.77
38716;BME280;24833;49.324;8.694;2024-03-22T02:41:21;100350.06;;;10.34;62.63
38716;BME280;24833;49.324;8.694;2024-03-22T02:43:48;100344.75;;;10.34;63.08
38716;BME280;24833;49.324;8.694;2024-03-22T02:46:14;100343.72;;;10.35;63.19
38716;BME280;24833;49.324;8.694;2024-03-22T02:48:40;100340.03;;;10.36;63.04
38716;BME280;24833;49.324;8.694;2024-03-22T02:51:06;100339.06;;;10.37;62.83
38716;BME280;24833;49.324;8.694;2024-03-22T02:53:33;100343.38;;;10.38;62.81
38716;BME280;24833;49.324;8.694;2024-03-22T02:56:02;100337.03;;;10.39;63.13
38716;BME280;24833;49.324;8.694;2024-03-22T02:58:28;100338.88;;;10.39;63.05
38716;BME280;24833;49.324;8.694;2024-03-22T03:00:57;100329.84;;;10.40;63.04
38716;BME280;24833;49.324;8.694;2024-03-22T03:03:23;100335.00;;;10.41;63.14
38716;BME280;24833;49.324;8.694;2024-03-22T03:05:49;100333.97;;;10.42;63.24
38716;BME280;24833;49.324;8.694;2024-03-22T03:08:15;100325.97;;;10.42;63.30
38716;BME280;24833;49.324;8.694;2024-03-22T03:10:42;100326.63;;;10.44;63.12
38716;BME280;24833;49.324;8.694;2024-03-22T03:13:14;100329.31;;;10.44;63.43
38716;BME280;24833;49.324;8.694;2024-03-22T03:15:40;100322.13;;;10.45;63.20
38716;BME280;24833;49.324;8.694;2024-03-22T03:18:06;100322.94;;;10.45;63.34
38716;BME280;24833;49.324;8.694;2024-03-22T03:20:33;100319.28;;;10.46;63.15
38716;BME280;24833;49.324;8.694;2024-03-22T03:22:59;100316.59;;;10.46;63.21
38716;BME280;24833;49.324;8.694;2024-03-22T03:25:28;100319.28;;;10.46;63.51
38716;BME280;24833;49.324;8.694;2024-03-22T03:27:54;100325.44;;;10.47;63.22
38716;BME280;24833;49.324;8.694;2024-03-22T03:30:23;100316.59;;;10.46;63.46
38716;BME280;24833;49.324;8.694;2024-03-22T03:32:49;100309.59;;;10.45;63.57
38716;BME280;24833;49.324;8.694;2024-03-22T03:35:15;100310.63;;;10.44;63.06
38716;BME280;24833;49.324;8.694;2024-03-22T03:37:41;100312.47;;;10.44;63.43
38716;BME280;24833;49.324;8.694;2024-03-22T03:40:08;100308.97;;;10.43;63.64
38716;BME280;24833;49.324;8.694;2024-03-22T03:42:34;100310.63;;;10.44;63.50
38716;BME280;24833;49.324;8.694;2024-03-22T03:45:03;100320.47;;;10.44;63.29
38716;BME280;24833;49.324;8.694;2024-03-22T03:47:30;100314.31;;;10.43;63.60
38716;BME280;24833;49.324;8.694;2024-03-22T03:49:56;100308.97;;;10.43;63.37
38716;BME280;24833;49.324;8.694;2024-03-22T03:52:22;100306.09;;;10.45;63.86
38716;BME280;24833;49.324;8.694;2024-03-22T03:54:49;100307.75;;;10.46;63.63
38716;BME280;24833;49.324;8.694;2024-03-22T03:57:15;100311.25;;;10.46;63.91
38716;BME280;24833;49.324;8.694;2024-03-22T03:59:45;100297.28;;;10.44;63.55
38716;BME280;24833;49.324;8.694;2024-03-22T04:02:11;100305.44;;;10.43;64.10
38716;BME280;24833;49.324;8.694;2024-03-22T04:04:37;100302.13;;;10.41;63.51
38716;BME280;24833;49.324;8.694;2024-03-22T04:07:04;100308.69;;;10.38;63.84
38716;BME280;24833;49.324;8.694;2024-03-22T04:09:34;100300.00;;;10.36;63.82
38716;BME280;24833;49.324;8.694;2024-03-22T04:12:00;100303.88;;;10.33;63.72
38716;BME280;24833;49.324;8.694;2024-03-22T04:14:27;100298.91;;;10.30;64.00
38716;BME280;24833;49.324;8.694;2024-03-22T04:16:53;100302.94;;;10.26;64.17
38716;BME280;24833;49.324;8.694;2024-03-22T04:19:22;100302.59;;;10.21;64.16
38716;BME280;24833;49.324;8.694;2024-03-22T04:21:51;100297.81;;;10.17;64.15
38716;BME280;24833;49.324;8.694;2024-03-22T04:24:17;100296.84;;;10.09;64.11
38716;BME280;24833;49.324;8.694;2024-03-22T04:26:44;100298.44;;;10.04;64.06
38716;BME280;24833;49.324;8.694;2024-03-22T04:29:10;100298.94;;;9.99;64.38
38716;BME280;24833;49.324;8.694;2024-03-22T04:31:39;100301.31;;;9.94;64.33
38716;BME280;24833;49.324;8.694;2024-03-22T04:34:08;100294.84;;;9.89;64.50
38716;BME280;24833;49.324;8.694;2024-03-22T04:36:37;100296.41;;;9.83;64.69
38716;BME280;24833;49.324;8.694;2024-03-22T04:39:03;100300.44;;;9.79;64.51
38716;BME280;24833;49.324;8.694;2024-03-22T04:41:30;100291.13;;;9.75;64.38
38716;BME280;24833;49.324;8.694;2024-03-22T04:43:56;100295.81;;;9.73;64.65
38716;BME280;24833;49.324;8.694;2024-03-22T04:46:22;100304.19;;;9.70;64.52
38716;BME280;24833;49.324;8.694;2024-03-22T04:48:48;100300.19;;;9.66;64.77
38716;BME280;24833;49.324;8.694;2024-03-22T04:51:14;100291.53;;;9.64;64.80
38716;BME280;24833;49.324;8.694;2024-03-22T04:53:41;100293.53;;;9.62;64.85
38716;BME280;24833;49.324;8.694;2024-03-22T04:56:07;100292.91;;;9.60;64.83
38716;BME280;24833;49.324;8.694;2024-03-22T04:58:33;100291.41;;;9.57;64.89
38716;BME280;24833;49.324;8.694;2024-03-22T05:01:00;100290.94;;;9.53;64.88
38716;BME280;24833;49.324;8.694;2024-03-22T05:03:26;100290.47;;;9.50;65.10
38716;BME280;24833;49.324;8.694;2024-03-22T05:05:53;100287.66;;;9.43;65.46
38716;BME280;24833;49.324;8.694;2024-03-22T05:08:19;100279.53;;;9.37;65.79
38716;BME280;24833;49.324;8.694;2024-03-22T05:10:46;100283.72;;;9.31;65.57
38716;BME280;24833;49.324;8.694;2024-03-22T05:13:12;100285.25;;;9.25;65.49
38716;BME280;24833;49.324;8.694;2024-03-22T05:15:38;100282.91;;;9.22;65.83
38716;BME280;24833;49.324;8.694;2024-03-22T05:18:04;100284.13;;;9.20;66.06
38716;BME280;24833;49.324;8.694;2024-03-22T05:20:31;100285.31;;;9.17;65.91
38716;BME280;24833;49.324;8.694;2024-03-22T05:22:59;100276.63;;;9.15;66.25
38716;BME280;24833;49.324;8.694;2024-03-22T05:25:26;100274.16;;;9.14;66.21
38716;BME280;24833;49.324;8.694;2024-03-22T05:27:52;100276.16;;;9.12;66.22
38716;BME280;24833;49.324;8.694;2024-03-22T05:30:18;100268.34;;;9.10;66.41
38716;BME280;24833;49.324;8.694;2024-03-22T05:32:45;100268.50;;;9.09;66.56
38716;BME280;24833;49.324;8.694;2024-03-22T05:35:11;100260.69;;;9.07;66.63
38716;BME280;24833;49.324;8.694;2024-03-22T05:37:37;100267.03;;;9.06;66.50
38716;BME280;24833;49.324;8.694;2024-03-22T05:40:03;100269.03;;;9.04;66.77
38716;BME280;24833;49.324;8.694;2024-03-22T05:42:31;100264.88;;;9.01;67.05
38716;BME280;24833;49.324;8.694;2024-03-22T05:44:57;100269.56;;;8.99;67.05
38716;BME280;24833;49.324;8.694;2024-03-22T05:47:25;100270.56;;;8.98;67.37
38716;BME280;24833;49.324;8.694;2024-03-22T05:49:54;100266.06;;;8.99;67.25
38716;BME280;24833;49.324;8.694;2024-03-22T05:52:20;100271.38;;;8.99;67.34
38716;BME280;24833;49.324;8.694;2024-03-22T05:54:46;100271.22;;;9.00;67.54
38716;BME280;24833;49.324;8.694;2024-03-22T05:57:12;100267.38;;;9.03;67.78
38716;BME280;24833;49.324;8.694;2024-03-22T05:59:39;100260.22;;;9.04;68.27
38716;BME280;24833;49.324;8.694;2024-03-22T06:02:05;100261.69;;;9.06;68.25
38716;BME280;24833;49.324;8.694;2024-03-22T06:04:31;100267.69;;;9.08;68.55
38716;BME280;24833;49.324;8.694;2024-03-22T06:06:58;100263.84;;;9.11;68.72
38716;BME280;24833;49.324;8.694;2024-03-22T06:09:29;100262.84;;;9.12;68.85
38716;BME280;24833;49.324;8.694;2024-03-22T06:12:17;100264.31;;;9.14;68.98
38716;BME280;24833;49.324;8.694;2024-03-22T06:14:44;100268.50;;;9.17;69.02
38716;BME280;24833;49.324;8.694;2024-03-22T06:17:12;100271.78;;;9.19;68.95
38716;BME280;24833;49.324;8.694;2024-03-22T06:19:39;100265.47;;;9.20;69.11
38716;BME280;24833;49.324;8.694;2024-03-22T06:22:06;100264.44;;;9.21;69.29
38716;BME280;24833;49.324;8.694;2024-03-22T06:24:32;100259.81;;;9.23;68.90
38716;BME280;24833;49.324;8.694;2024-03-22T06:26:58;100255.31;;;9.23;69.33
38716;BME280;24833;49.324;8.694;2024-03-22T06:29:24;100255.13;;;9.25;69.15
38716;BME280;24833;49.324;8.694;2024-03-22T06:31:50;100252.44;;;9.25;69.25
38716;BME280;24833;49.324;8.694;2024-03-22T06:34:18;100248.78;;;9.26;69.50
38716;BME280;24833;49.324;8.694;2024-03-22T06:36:44;100252.09;;;9.28;69.67
38716;BME280;24833;49.324;8.694;2024-03-22T06:39:10;100248.41;;;9.29;70.09
38716;BME280;24833;49.324;8.694;2024-03-22T06:41:37;100248.25;;;9.31;69.99
38716;BME280;24833;49.324;8.694;2024-03-22T06:44:03;100248.09;;;9.32;69.80
38716;BME280;24833;49.324;8.694;2024-03-22T06:46:30;100244.22;;;9.35;70.09
38716;BME280;24833;49.324;8.694;2024-03-22T06:48:57;100241.41;;;9.36;70.68
38716;BME280;24833;49.324;8.694;2024-03-22T06:51:23;100240.66;;;9.42;70.91
38716;BME280;24833;49.324;8.694;2024-03-22T06:53:50;100237.47;;;9.47;70.77
38716;BME280;24833;49.324;8.694;2024-03-22T06:56:17;100227.97;;;9.52;70.71
38716;BME280;24833;49.324;8.694;2024-03-22T06:58:44;100235.25;;;9.59;70.96
38716;BME280;24833;49.324;8.694;2024-03-22T07:01:10;100231.88;;;9.65;71.49
38716;BME280;24833;49.324;8.694;2024-03-22T07:03:36;100233.66;;;9.72;71.88
38716;BME280;24833;49.324;8.694;2024-03-22T07:06:02;100231.91;;;9.79;71.97
38716;BME280;24833;49.324;8.694;2024-03-22T07:08:29;100226.50;;;9.88;72.08
38716;BME280;24833;49.324;8.694;2024-03-22T07:10:55;100226.63;;;9.94;72.42
38716;BME280;24833;49.324;8.694;2024-03-22T07:13:21;100220.38;;;10.02;72.96
38716;BME280;24833;49.324;8.694;2024-03-22T07:15:48;100223.81;;;10.10;73.33
38716;BME280;24833;49.324;8.694;2024-03-22T07:18:15;100221.91;;;10.19;73.38
38716;BME280;24833;49.324;8.694;2024-03-22T07:20:42;100213.00;;;10.27;73.25
38716;BME280;24833;49.324;8.694;2024-03-22T07:23:09;100222.56;;;10.36;73.55
38716;BME280;24833;49.324;8.694;2024-03-22T07:25:35;100212.84;;;10.43;73.27
38716;BME280;24833;49.324;8.694;2024-03-22T07:28:01;100209.06;;;10.52;73.74
38716;BME280;24833;49.324;8.694;2024-03-22T07:30:27;100208.97;;;10.60;73.54
38716;BME280;24833;49.324;8.694;2024-03-22T07:32:53;100213.84;;;10.72;74.02
38716;BME280;24833;49.324;8.694;2024-03-22T07:35:20;100220.75;;;10.81;74.25
38716;BME280;24833;49.324;8.694;2024-03-22T07:37:46;100214.31;;;10.90;74.64
38716;BME280;24833;49.324;8.694;2024-03-22T07:40:12;100216.84;;;10.98;74.39
38716;BME280;24833;49.324;8.694;2024-03-22T07:42:38;100220.25;;;11.07;74.89
38716;BME280;24833;49.324;8.694;2024-03-22T07:45:04;100211.09;;;11.16;74.99
38716;BME280;24833;49.324;8.694;2024-03-22T07:47:31;100211.81;;;11.25;75.06
38716;BME280;24833;49.324;8.694;2024-03-22T07:49:57;100199.97;;;11.34;75.43
38716;BME280;24833;49.324;8.694;2024-03-22T07:52:23;100201.50;;;11.43;75.46
38716;BME280;24833;49.324;8.694;2024-03-22T07:54:50;100201.84;;;11.55;75.69
38716;BME280;24833;49.324;8.694;2024-03-22T07:57:19;100200.72;;;11.64;75.18
38716;BME280;24833;49.324;8.694;2024-03-22T07:59:46;100203.03;;;11.73;75.24
38716;BME280;24833;49.324;8.694;2024-03-22T08:02:13;100197.22;;;11.85;75.24
38716;BME280;24833;49.324;8.694;2024-03-22T08:04:39;100192.34;;;11.95;75.18
38716;BME280;24833;49.324;8.694;2024-03-22T08:07:06;100191.00;;;12.06;75.16
38716;BME280;24833;49.324;8.694;2024-03-22T08:09:32;100194.59;;;12.19;74.99
38716;BME280;24833;49.324;8.694;2024-03-22T08:11:58;100187.84;;;12.30;75.06
38716;BME280;24833;49.324;8.694;2024-03-22T08:14:24;100189.97;;;12.41;74.95
38716;BME280;24833;49.324;8.694;2024-03-22T08:16:50;100183.88;;;12.54;75.06
38716;BME280;24833;49.324;8.694;2024-03-22T08:19:16;100188.69;;;12.65;74.92
38716;BME280;24833;49.324;8.694;2024-03-22T08:21:43;100184.59;;;12.76;74.40
38716;BME280;24833;49.324;8.694;2024-03-22T08:24:09;100178.06;;;12.85;74.40
38716;BME280;24833;49.324;8.694;2024-03-22T08:26:35;100185.91;;;12.93;73.89
38716;BME280;24833;49.324;8.694;2024-03-22T08:29:01;100177.06;;;12.99;73.73
38716;BME280;24833;49.324;8.694;2024-03-22T08:31:27;100177.91;;;13.06;73.54
38716;BME280;24833;49.324;8.694;2024-03-22T08:33:54;100177.09;;;13.13;73.32
38716;BME280;24833;49.324;8.694;2024-03-22T08:36:22;100163.06;;;13.17;73.08
38716;BME280;24833;49.324;8.694;2024-03-22T08:38:50;100161.47;;;13.23;73.08
38716;BME280;24833;49.324;8.694;2024-03-22T08:41:16;100164.16;;;13.29;73.01
38716;BME280;24833;49.324;8.694;2024-03-22T08:43:42;100161.72;;;13.34;72.80
38716;BME280;24833;49.324;8.694;2024-03-22T08:46:08;100161.94;;;13.40;72.68
38716;BME280;24833;49.324;8.694;2024-03-22T08:48:34;100158.44;;;13.46;72.82
38716;BME280;24833;49.324;8.694;2024-03-22T08:51:00;100161.34;;;13.51;72.59
38716;BME280;24833;49.324;8.694;2024-03-22T08:53:27;100156.16;;;13.56;72.60
38716;BME280;24833;49.324;8.694;2024-03-22T08:55:54;100162.78;;;13.60;72.52
38716;BME280;24833;49.324;8.694;2024-03-22T08:58:20;100152.44;;;13.63;72.14
38716;BME280;24833;49.324;8.694;2024-03-22T09:00:46;100156.38;;;13.68;71.94
38716;BME280;24833;49.324;8.694;2024-03-22T09:03:12;100156.81;;;13.71;72.34
38716;BME280;24833;49.324;8.694;2024-03-22T09:05:41;100149.75;;;13.77;71.85
38716;BME280;24833;49.324;8.694;2024-03-22T09:08:07;100147.50;;;13.80;71.74
38716;BME280;24833;49.324;8.694;2024-03-22T09:10:33;100143.38;;;13.84;71.58
38716;BME280;24833;49.324;8.694;2024-03-22T09:12:59;100142.94;;;13.87;71.70
38716;BME280;24833;49.324;8.694;2024-03-22T09:15:25;100137.16;;;13.90;71.50
38716;BME280;24833;49.324;8.694;2024-03-22T09:17:52;100140.03;;;13.96;71.11
38716;BME280;24833;49.324;8.694;2024-03-22T09:20:18;100138.81;;;13.98;71.35
38716;BME280;24833;49.324;8.694;2024-03-22T09:22:45;100129.50;;;14.01;71.50
38716;BME280;24833;49.324;8.694;2024-03-22T09:25:12;100123.53;;;14.05;71.48
38716;BME280;24833;49.324;8.694;2024-03-22T09:27:38;100115.84;;;14.09;71.38
38716;BME280;24833;49.324;8.694;2024-03-22T09:30:05;100125.16;;;14.13;70.99
38716;BME280;24833;49.324;8.694;2024-03-22T09:32:31;100112.13;;;14.16;70.72
38716;BME280;24833;49.324;8.694;2024-03-22T09:34:58;100110.06;;;14.18;70.73
38716;BME280;24833;49.324;8.694;2024-03-22T09:37:24;100105.09;;;14.22;70.75
38716;BME280;24833;49.324;8.694;2024-03-22T09:39:50;100109.00;;;14.26;70.76
38716;BME280;24833;49.324;8.694;2024-03-22T09:42:17;100099.69;;;14.29;70.65
38716;BME280;24833;49.324;8.694;2024-03-22T09:44:48;100100.09;;;14.32;70.67
38716;BME280;24833;49.324;8.694;2024-03-22T09:47:15;100099.44;;;14.37;70.21
38716;BME280;24833;49.324;8.694;2024-03-22T09:49:43;100094.28;;;14.42;70.15
38716;BME280;24833;49.324;8.694;2024-03-22T09:52:20;100092.63;;;14.48;70.29
38716;BME280;24833;49.324;8.694;2024-03-22T09:54:46;100096.56;;;14.52;70.36
38716;BME280;24833;49.324;8.694;2024-03-22T09:57:14;100093.22;;;14.56;69.96
38716;BME280;24833;49.324;8.694;2024-03-22T09:59:46;100087.81;;;14.63;69.98
38716;BME280;24833;49.324;8.694;2024-03-22T10:02:13;100086.34;;;14.67;70.36
38716;BME280;24833;49.324;8.694;2024-03-22T10:04:40;100076.38;;;14.74;70.11
38716;BME280;24833;49.324;8.694;2024-03-22T10:07:07;100079.84;;;14.81;69.69
38716;BME280;24833;49.324;8.694;2024-03-22T10:09:37;100077.13;;;14.88;69.81
38716;BME280;24833;49.324;8.694;2024-03-22T10:12:03;100085.16;;;14.94;69.52
38716;BME280;24833;49.324;8.694;2024-03-22T10:14:30;100072.50;;;15.02;69.15
38716;BME280;24833;49.324;8.694;2024-03-22T10:16:57;100068.72;;;15.09;68.90
38716;BME280;24833;49.324;8.694;2024-03-22T10:19:24;100065.38;;;15.14;69.04
38716;BME280;24833;49.324;8.694;2024-03-22T10:22:04;100065.31;;;15.20;68.78
38716;BME280;24833;49.324;8.694;2024-03-22T10:24:31;100060.94;;;15.26;68.63
38716;BME280;24833;49.324;8.694;2024-03-22T10:26:59;100048.69;;;15.30;68.05
38716;BME280;24833;49.324;8.694;2024-03-22T10:29:25;100046.16;;;15.35;67.85
38716;BME280;24833;49.324;8.694;2024-03-22T10:31:53;100046.34;;;15.40;67.45
38716;BME280;24833;49.324;8.694;2024-03-22T10:34:24;100042.13;;;15.44;67.61
38716;BME280;24833;49.324;8.694;2024-03-22T10:36:51;100042.31;;;15.49;67.52
38716;BME280;24833;49.324;8.694;2024-03-22T10:39:18;100041.66;;;15.54;66.67
38716;BME280;24833;49.324;8.694;2024-03-22T10:41:48;100040.19;;;15.58;66.67
38716;BME280;24833;49.324;8.694;2024-03-22T10:44:17;100027.13;;;15.62;66.60
38716;BME280;24833;49.324;8.694;2024-03-22T10:46:46;100031.84;;;15.66;66.21
38716;BME280;24833;49.324;8.694;2024-03-22T10:49:18;100022.06;;;15.72;66.25
38716;BME280;24833;49.324;8.694;2024-03-22T10:51:49;100015.16;;;15.76;65.72
38716;BME280;24833;49.324;8.694;2024-03-22T10:54:30;100010.97;;;15.80;65.62
38716;BME280;24833;49.324;8.694;2024-03-22T10:56:58;100012.97;;;15.85;65.42
38716;BME280;24833;49.324;8.694;2024-03-22T10:59:25;100007.16;;;15.88;65.43
38716;BME280;24833;49.324;8.694;2024-03-22T11:01:52;100007.75;;;15.90;65.07
38716;BME280;24833;49.324;8.694;2024-03-22T11:04:22;99999.25;;;15.93;65.31
38716;BME280;24833;49.324;8.694;2024-03-22T11:06:52;99996.31;;;15.94;65.36
38716;BME280;24833;49.324;8.694;2024-03-22T11:09:24;99995.84;;;15.97;65.11
38716;BME280;24833;49.324;8.694;2024-03-22T11:11:56;99991.91;;;16.00;64.84
38716;BME280;24833;49.324;8.694;2024-03-22T11:14:28;99994.13;;;16.03;65.17
38716;BME280;24833;49.324;8.694;2024-03-22T11:16:55;99986.44;;;16.06;65.14
38716;BME280;24833;49.324;8.694;2024-03-22T11:19:21;99973.56;;;16.08;64.49
38716;BME280;24833;49.324;8.694;2024-03-22T11:21:47;99974.97;;;16.11;64.31
38716;BME280;24833;49.324;8.694;2024-03-22T11:24:15;99971.00;;;16.14;64.23
38716;BME280;24833;49.324;8.694;2024-03-22T11:26:41;99969.50;;;16.18;64.09
38716;BME280;24833;49.324;8.694;2024-03-22T11:29:10;99951.25;;;16.20;63.94
38716;BME280;24833;49.324;8.694;2024-03-22T11:31:36;99949.13;;;16.22;63.04
38716;BME280;24833;49.324;8.694;2024-03-22T11:34:03;99945.97;;;16.25;63.31
38716;BME280;24833;49.324;8.694;2024-03-22T11:36:29;99940.72;;;16.30;63.21
38716;BME280;24833;49.324;8.694;2024-03-22T11:38:56;99933.84;;;16.34;63.24
38716;BME280;24833;49.324;8.694;2024-03-22T11:41:28;99928.78;;;16.38;62.71
38716;BME280;24833;49.324;8.694;2024-03-22T11:43:56;99926.47;;;16.41;62.48
38716;BME280;24833;49.324;8.694;2024-03-22T11:46:24;99922.47;;;16.44;62.98
38716;BME280;24833;49.324;8.694;2024-03-22T11:48:55;99915.81;;;16.46;63.21
38716;BME280;24833;49.324;8.694;2024-03-22T11:51:22;99909.13;;;16.49;63.19
38716;BME280;24833;49.324;8.694;2024-03-22T11:53:52;99904.34;;;16.51;63.00
38716;BME280;24833;49.324;8.694;2024-03-22T11:56:20;99904.72;;;16.54;63.56
38716;BME280;24833;49.324;8.694;2024-03-22T11:58:48;99905.91;;;16.58;63.30
38716;BME280;24833;49.324;8.694;2024-03-22T12:01:17;99903.78;;;16.60;63.36
38716;BME280;24833;49.324;8.694;2024-03-22T12:03:47;99902.25;;;16.65;63.57
38716;BME280;24833;49.324;8.694;2024-03-22T12:06:15;99893.72;;;16.68;63.06
38716;BME280;24833;49.324;8.694;2024-03-22T12:08:41;99899.25;;;16.73;63.57
38716;BME280;24833;49.324;8.694;2024-03-22T12:11:11;99888.00;;;16.76;62.94
38716;BME280;24833;49.324;8.694;2024-03-22T12:13:38;99891.88;;;16.80;62.20
38716;BME280;24833;49.324;8.694;2024-03-22T12:16:05;99887.66;;;16.84;62.28
38716;BME280;24833;49.324;8.694;2024-03-22T12:18:33;99880.75;;;16.88;61.61
38716;BME280;24833;49.324;8.694;2024-03-22T12:21:00;99875.94;;;16.90;61.79
38716;BME280;24833;49.324;8.694;2024-03-22T12:23:26;99872.16;;;16.91;61.17
38716;BME280;24833;49.324;8.694;2024-03-22T12:25:52;99865.75;;;16.92;61.11
38716;BME280;24833;49.324;8.694;2024-03-22T12:28:20;99866.91;;;16.96;61.29
38716;BME280;24833;49.324;8.694;2024-03-22T12:30:47;99864.19;;;16.96;61.24
38716;BME280;24833;49.324;8.694;2024-03-22T12:33:14;99859.38;;;16.98;61.29
38716;BME280;24833;49.324;8.694;2024-03-22T12:35:41;99853.78;;;17.00;61.47
38716;BME280;24833;49.324;8.694;2024-03-22T12:38:07;99856.22;;;17.01;61.65
38716;BME280;24833;49.324;8.694;2024-03-22T12:40:37;99845.44;;;17.01;61.47
38716;BME280;24833;49.324;8.694;2024-03-22T12:43:04;99845.19;;;17.03;61.38
38716;BME280;24833;49.324;8.694;2024-03-22T12:45:30;99845.75;;;17.05;61.71
38716;BME280;24833;49.324;8.694;2024-03-22T12:47:56;99839.91;;;17.08;61.35
38716;BME280;24833;49.324;8.694;2024-03-22T12:50:22;99831.13;;;17.12;61.23
38716;BME280;24833;49.324;8.694;2024-03-22T12:52:49;99821.47;;;17.16;60.88